Walkerville, Michigan
Current Conditions -  °F | °C
As of 1:13 PM on Thursday 23 Oct 2014 (Local Time) from KFFX Reporting Station
Broken Clouds Broken Clouds  
Wind Chill: 53°   Ceiling: 1800
Heat Index: 53°   Visibility: 10mi
Dew Point: 43°   Wind: 9mph
Humidity: 69%   Direction: 230°SW
Pressure: 30.18"   Gusts: NA
Location:  43.71°N, 86.12°W
Report Text: KFFX 231713Z AUTO 23008KT 10SM BKN018 12/06 A3018 RMK AO2 T01170061
Loading
Personal Weather Stations






























Interactive Weather Map
Tropical Storm Tracking
New forecast layout! Learn more

10-Day Weather Forecast

Advertisements
Track Severe Weather on mobile